Time;durP1;ratioP1;P1;durP2;ratioP2;P2;SDS_P1;SDS_P2;PMS_P1;PMS_P2;Temp;Humidity;BMP_temperature;BMP_pressure;BME280_temperature;BME280_humidity;BME280_pressure;Samples;Min_cycle;Max_cycle;Signal;HPM_P1;HPM_P2
2023/02/01 00:02:12;;;;;;;4.18;0.75;;;;;;;-2.47;64.35;99139.03;5075745;28;20075;-76
2023/02/01 00:04:39;;;;;;;3.75;0.70;;;;;;;-2.50;64.79;99140.72;5076811;28;20074;-76
2023/02/01 00:07:06;;;;;;;5.63;0.50;;;;;;;-2.48;64.45;99148.38;5059372;28;20044;-76
2023/02/01 00:09:33;;;;;;;4.45;0.50;;;;;;;-2.47;64.56;99144.16;5075251;28;20051;-76
2023/02/01 00:12:01;;;;;;;6.35;0.60;;;;;;;-2.49;64.43;99136.44;5077041;28;20055;-75
2023/02/01 00:14:30;;;;;;;2.17;0.50;;;;;;;-2.50;64.62;99132.19;5076173;28;20048;-76
2023/02/01 00:16:57;;;;;;;2.60;0.47;;;;;;;-2.51;64.37;99136.41;5076637;28;20523;-76
2023/02/01 00:19:23;;;;;;;4.88;0.80;;;;;;;-2.54;64.77;99131.28;5077032;28;20036;-77
2023/02/01 00:21:50;;;;;;;2.25;0.47;;;;;;;-2.53;64.88;99135.56;5059860;28;20060;-77
2023/02/01 00:24:17;;;;;;;5.45;0.60;;;;;;;-2.53;64.74;99130.47;5076505;28;20055;-76
2023/02/01 00:26:46;;;;;;;4.20;0.68;;;;;;;-2.54;65.09;99125.31;5074720;28;20044;-77
2023/02/01 00:29:14;;;;;;;3.80;0.50;;;;;;;-2.64;64.68;99114.19;5076574;28;20051;-76
2023/02/01 00:31:43;;;;;;;2.05;0.50;;;;;;;-2.57;64.89;99121.03;5077865;28;20047;-76
2023/02/01 00:34:12;;;;;;;4.88;1.15;;;;;;;-2.60;64.94;99113.34;5076781;28;20051;-76
2023/02/01 00:36:39;;;;;;;6.43;0.85;;;;;;;-2.58;64.63;99116.78;5076731;28;20071;-76
2023/02/01 00:39:06;;;;;;;1.75;0.60;;;;;;;-2.58;65.01;99127.00;5075335;28;20516;-76
2023/02/01 00:41:33;;;;;;;9.50;0.70;;;;;;;-2.57;65.17;99125.31;5076514;28;20043;-77
2023/02/01 00:44:01;;;;;;;3.75;0.93;;;;;;;-2.58;65.06;99127.00;5076694;28;20044;-78
2023/02/01 00:46:28;;;;;;;2.90;0.50;;;;;;;-2.59;64.83;99120.19;5076278;28;20062;-76
2023/02/01 00:48:57;;;;;;;2.03;0.50;;;;;;;-2.58;64.98;99132.13;5077094;28;20062;-76
2023/02/01 00:51:26;;;;;;;1.98;0.85;;;;;;;-2.58;65.12;99118.50;5076416;28;20125;-78
2023/02/01 00:53:54;;;;;;;5.80;0.50;;;;;;;-2.58;65.22;99113.38;5075624;28;20048;-76
2023/02/01 00:56:21;;;;;;;3.00;1.05;;;;;;;-2.57;65.40;99118.47;5076394;28;20629;-78
2023/02/01 00:58:48;;;;;;;4.05;0.80;;;;;;;-2.59;65.42;99115.09;5073839;28;20052;-76
2023/02/01 01:01:16;;;;;;;7.75;0.65;;;;;;;-2.58;65.45;99119.34;5076246;28;20059;-76
2023/02/01 01:03:45;;;;;;;3.55;0.50;;;;;;;-2.58;65.33;99119.34;5076865;28;20036;-76
2023/02/01 01:06:15;;;;;;;2.25;1.45;;;;;;;-2.59;65.48;99117.63;5074833;28;20257;-76
2023/02/01 01:08:43;;;;;;;3.13;0.50;;;;;;;-2.58;65.29;99116.78;5075175;28;20048;-75
2023/02/01 01:11:12;;;;;;;2.88;0.57;;;;;;;-2.56;65.46;99120.22;5074993;28;20416;-76
2023/02/01 01:13:39;;;;;;;0.80;0.50;;;;;;;-2.55;65.37;99121.06;5075002;28;20048;-76
2023/02/01 01:16:08;;;;;;;3.78;0.70;;;;;;;-2.54;65.51;99108.28;5075181;28;20527;-76
2023/02/01 01:18:35;;;;;;;3.67;0.50;;;;;;;-2.54;65.57;99108.28;5075934;28;20052;-77
2023/02/01 01:21:04;;;;;;;6.20;0.73;;;;;;;-2.53;65.67;99111.72;5076793;28;20044;-77
2023/02/01 01:23:33;;;;;;;1.52;0.60;;;;;;;-2.53;65.74;99122.78;5074295;28;20048;-75
2023/02/01 01:25:59;;;;;;;3.05;0.60;;;;;;;-2.53;65.42;99125.34;5075861;28;20048;-76
2023/02/01 01:28:26;;;;;;;5.53;0.60;;;;;;;-2.51;65.73;99133.00;5073676;28;20056;-76
2023/02/01 01:30:53;;;;;;;1.35;0.50;;;;;;;-2.51;65.65;99133.88;5075411;28;20519;-76
2023/02/01 01:33:20;;;;;;;7.57;0.40;;;;;;;-2.50;65.66;99133.03;5074862;28;20048;-76
2023/02/01 01:35:47;;;;;;;3.67;0.60;;;;;;;-2.49;65.74;99129.63;5075580;28;20056;-76
2023/02/01 01:38:14;;;;;;;3.83;0.70;;;;;;;-2.46;65.87;99135.63;5075558;28;20043;-76
2023/02/01 01:40:45;;;;;;;1.77;1.08;;;;;;;-2.54;65.81;99120.22;5055644;28;20047;-76
2023/02/01 01:43:17;;;;;;;8.68;1.45;;;;;;;-2.45;65.92;99134.75;5075935;28;20058;-76
2023/02/01 01:45:44;;;;;;;3.33;0.90;;;;;;;-2.44;65.75;99139.06;5074648;28;20040;-76
2023/02/01 01:48:16;;;;;;;5.43;0.73;;;;;;;-2.44;66.28;99134.78;5044623;28;20051;-76
2023/02/01 01:50:48;;;;;;;1.65;0.45;;;;;;;-2.43;66.06;99133.94;5075621;28;20044;-76
2023/02/01 01:53:20;;;;;;;3.83;0.60;;;;;;;-2.42;65.91;99122.88;5075431;28;20285;-76
2023/02/01 01:55:51;;;;;;;2.22;0.55;;;;;;;-2.41;66.02;99134.81;5072892;28;20051;-77
2023/02/01 01:58:21;;;;;;;6.63;0.50;;;;;;;-2.39;65.95;99132.25;5074294;28;20047;-76
2023/02/01 02:00:48;;;;;;;2.15;0.98;;;;;;;-2.39;65.89;99133.13;5074677;28;20051;-76
2023/02/01 02:03:20;;;;;;;6.85;0.50;;;;;;;-2.38;66.09;99139.94;5079390;28;20055;-75
2023/02/01 02:05:50;;;;;;;6.15;1.33;;;;;;;-2.37;65.99;99140.78;5080078;28;20043;-76
2023/02/01 02:08:17;;;;;;;1.98;0.50;;;;;;;-2.36;65.92;99140.81;5077296;28;20050;-76
2023/02/01 02:11:03;;;;;;;1.70;0.50;;;;;;;-2.35;66.20;99141.66;5077097;28;20051;-76
2023/02/01 02:13:34;;;;;;;3.25;0.70;;;;;;;-2.34;66.15;99146.78;5077613;28;20047;-76
2023/02/01 02:16:21;;;;;;;3.65;0.60;;;;;;;-2.33;66.31;99147.66;5079413;28;20055;-76
2023/02/01 02:18:56;;;;;;;1.80;0.52;;;;;;;-2.32;66.19;99137.44;5075361;28;20068;-76
2023/02/01 02:21:42;;;;;;;3.22;0.60;;;;;;;-2.33;65.85;99137.44;5077582;28;20052;-76
2023/02/01 02:24:44;;;;;;;1.95;0.40;;;;;;;-2.29;66.18;99134.03;5076181;28;20044;-76
2023/02/01 02:27:24;;;;;;;2.88;0.70;;;;;;;-2.33;66.32;99119.53;4993473;28;20085;-76
2023/02/01 02:30:26;;;;;;;3.90;0.50;;;;;;;-2.26;66.43;99128.94;5070136;28;20069;-76
2023/02/01 02:33:37;;;;;;;1.90;1.13;;;;;;;-2.26;66.02;99122.13;5079714;28;20526;-76
2023/02/01 02:36:11;;;;;;;2.22;0.55;;;;;;;-2.24;66.25;99111.06;5081223;28;20131;-76
2023/02/01 02:38:45;;;;;;;5.85;0.68;;;;;;;-2.23;66.29;99118.72;5074895;28;20505;-76
2023/02/01 02:47:23;;;;;;;1.92;0.57;;;;;;;-2.22;66.39;99120.47;5077207;28;20036;-76
2023/02/01 02:55:26;;;;;;;4.97;0.60;;;;;;;-2.13;66.53;99129.88;5085089;28;20059;-76
2023/02/01 03:06:16;;;;;;;2.00;0.43;;;;;;;-2.09;66.67;99129.91;5082477;28;20055;-76
2023/02/01 03:08:45;;;;;;;2.53;0.63;;;;;;;-2.06;66.63;99135.03;5085690;28;20488;-76
2023/02/01 03:11:14;;;;;;;1.50;0.60;;;;;;;-2.06;66.79;99135.03;5077241;28;20044;-77
2023/02/01 03:13:46;;;;;;;8.15;0.93;;;;;;;-2.03;66.80;99141.88;5077704;28;20053;-77
2023/02/01 03:16:21;;;;;;;4.72;1.30;;;;;;;-2.03;66.69;99147.00;5082378;28;20059;-76
2023/02/01 03:18:53;;;;;;;2.78;0.60;;;;;;;-2.04;66.77;99132.50;5079142;28;20068;-76
2023/02/01 03:21:27;;;;;;;3.53;0.82;;;;;;;-1.99;66.53;99137.63;5080696;28;20097;-76
2023/02/01 03:23:56;;;;;;;4.65;0.70;;;;;;;-1.98;66.86;99147.03;5081505;28;20052;-76
2023/02/01 03:26:27;;;;;;;2.63;0.80;;;;;;;-1.99;66.76;99148.72;5081052;28;20043;-76
2023/02/01 03:28:58;;;;;;;1.33;0.68;;;;;;;-1.96;67.06;99151.31;5084709;28;20052;-76
2023/02/01 03:31:25;;;;;;;4.97;0.65;;;;;;;-1.94;66.82;99146.19;5073729;28;20074;-76
2023/02/01 03:33:52;;;;;;;1.23;0.65;;;;;;;-1.93;66.67;99135.13;5082358;28;20044;-76
2023/02/01 03:36:27;;;;;;;1.50;0.70;;;;;;;-1.92;67.33;99135.13;5079008;28;20404;-76
2023/02/01 03:39:02;;;;;;;1.08;0.43;;;;;;;-1.91;66.65;99131.69;5080691;28;20496;-79
2023/02/01 03:41:33;;;;;;;;;;;;;;;-1.89;66.35;99134.28;5091195;28;20396;-80
2023/02/01 03:44:11;;;;;;;3.67;0.63;;;;;;;-1.89;66.71;99136.84;5082583;28;19927;-79
2023/02/01 03:46:42;;;;;;;4.53;0.60;;;;;;;-1.89;66.87;99137.69;5082276;28;20044;-79
2023/02/01 03:49:15;;;;;;;5.00;0.77;;;;;;;-1.91;66.69;99130.84;5099029;28;20043;-79
2023/02/01 03:51:43;;;;;;;4.78;0.90;;;;;;;-1.86;66.98;99144.53;5084553;28;20048;-79
2023/02/01 03:54:15;;;;;;;2.25;0.47;;;;;;;-1.85;67.10;99141.09;5086466;28;20051;-79
2023/02/01 03:56:47;;;;;;;4.25;0.88;;;;;;;-1.85;67.25;99147.09;5083644;28;20109;-80
2023/02/01 03:59:15;;;;;;;5.50;0.70;;;;;;;-1.83;67.35;99154.78;5086470;28;20045;-79
2023/02/01 04:01:41;;;;;;;4.68;0.60;;;;;;;-1.83;67.01;99147.09;5094163;28;20460;-79
2023/02/01 04:04:09;;;;;;;3.63;0.82;;;;;;;-1.82;67.47;99151.38;5087013;28;20040;-79
2023/02/01 04:06:36;;;;;;;2.15;0.90;;;;;;;-1.81;67.38;99142.84;5088408;28;20126;-79
2023/02/01 04:09:04;;;;;;;4.85;0.68;;;;;;;-1.78;66.95;99144.56;5088906;28;20051;-79
2023/02/01 04:11:31;;;;;;;3.38;0.93;;;;;;;-1.77;67.28;99136.03;5089688;28;20054;-79
2023/02/01 04:14:03;;;;;;;3.83;0.70;;;;;;;-1.76;67.49;99138.63;5086479;28;20051;-80
2023/02/01 04:16:30;;;;;;;3.13;0.63;;;;;;;-1.74;67.37;99146.28;5086346;28;20047;-79
2023/02/01 04:18:58;;;;;;;2.88;0.88;;;;;;;-1.74;67.01;99136.06;5089409;28;20048;-79
2023/02/01 04:21:25;;;;;;;5.75;2.60;;;;;;;-1.71;67.42;99143.75;5081036;28;20441;-80
2023/02/01 04:23:52;;;;;;;3.15;1.40;;;;;;;-1.74;67.10;99138.59;5077275;28;20053;-80
2023/02/01 04:26:21;;;;;;;5.45;0.80;;;;;;;-1.67;67.05;99148.03;5084547;28;20052;-79
2023/02/01 04:28:48;;;;;;;3.35;0.68;;;;;;;-1.67;67.40;99137.81;5077411;28;20047;-79
2023/02/01 04:31:15;;;;;;;4.72;0.90;;;;;;;-1.66;67.22;99142.06;5098029;28;20723;-79
2023/02/01 04:33:42;;;;;;;2.70;0.82;;;;;;;-1.64;67.56;99148.91;5091953;28;20484;-79
2023/02/01 04:36:09;;;;;;;3.92;1.20;;;;;;;-1.64;67.72;99151.47;5089121;28;20488;-79
2023/02/01 04:38:36;;;;;;;5.50;1.05;;;;;;;-1.62;67.36;99154.91;5090502;28;20047;-79
2023/02/01 04:41:03;;;;;;;7.38;0.90;;;;;;;-1.61;67.12;99159.16;5088675;28;20051;-79
2023/02/01 04:43:31;;;;;;;4.05;0.77;;;;;;;-1.60;67.29;99153.19;5080966;28;20040;-79
2023/02/01 04:45:58;;;;;;;6.30;1.13;;;;;;;-1.61;67.32;99146.34;5087606;28;20044;-79
2023/02/01 04:48:25;;;;;;;4.25;1.10;;;;;;;-1.57;67.65;99154.91;5085445;28;20052;-79
2023/02/01 04:50:52;;;;;;;1.73;0.77;;;;;;;-1.55;67.49;99147.25;5091440;28;20044;-80
2023/02/01 04:53:18;;;;;;;3.72;0.73;;;;;;;-1.54;67.44;99143.81;5085817;28;20036;-79
2023/02/01 04:55:45;;;;;;;12.00;0.80;;;;;;;-1.52;67.58;99139.56;5087644;28;20040;-80
2023/02/01 04:58:12;;;;;;;7.05;0.80;;;;;;;-1.51;67.81;99136.16;5085378;28;20052;-80
2023/02/01 05:00:40;;;;;;;3.08;0.80;;;;;;;-1.55;67.46;99125.03;5081666;28;20070;-80
2023/02/01 05:03:08;;;;;;;2.85;0.85;;;;;;;-1.49;67.83;99132.75;5084905;28;20063;-80
2023/02/01 05:05:34;;;;;;;1.50;0.60;;;;;;;-1.47;67.72;99135.31;5085926;28;20471;-79
2023/02/01 05:08:01;;;;;;;3.38;0.70;;;;;;;-1.47;67.50;99131.06;5083217;28;20396;-79
2023/02/01 05:10:28;;;;;;;2.65;0.70;;;;;;;-1.61;67.42;99115.63;5085772;28;20059;-79
2023/02/01 05:15:40;;;;;;;2.50;1.67;;;;;;;-1.43;67.92;99148.13;5082974;28;20165;-80
2023/02/01 05:18:07;;;;;;;4.55;0.82;;;;;;;-1.41;67.63;99153.28;5093727;28;20044;-79
2023/02/01 05:20:34;;;;;;;2.97;0.50;;;;;;;-1.40;67.71;99149.84;5093302;28;20051;-79
2023/02/01 05:23:01;;;;;;;5.75;0.90;;;;;;;-1.41;68.04;99154.13;5088420;28;20040;-79
2023/02/01 05:25:28;;;;;;;4.82;0.70;;;;;;;-1.43;68.12;99149.84;5089183;28;20040;-79
2023/02/01 05:27:54;;;;;;;3.75;0.70;;;;;;;-1.43;68.33;99144.72;5088290;28;20048;-80
2023/02/01 05:30:22;;;;;;;2.63;0.68;;;;;;;-1.38;67.82;99158.41;5078302;28;20055;-79
2023/02/01 05:32:52;;;;;;;5.15;0.65;;;;;;;-1.36;67.74;99156.72;5082491;28;20054;-79
2023/02/01 05:35:19;;;;;;;2.22;0.85;;;;;;;-1.34;67.98;99167.78;5082627;28;20045;-79
2023/02/01 05:37:47;;;;;;;13.18;1.75;;;;;;;-1.36;68.36;99160.13;5083414;28;20040;-80
2023/02/01 05:40:14;;;;;;;1.77;0.60;;;;;;;-1.32;68.30;99171.22;5083930;28;20044;-79
2023/02/01 05:42:40;;;;;;;5.75;0.90;;;;;;;-1.30;68.38;99169.53;5079620;28;20055;-79
2023/02/01 05:45:09;;;;;;;5.47;0.80;;;;;;;-1.28;68.34;99175.53;5078521;28;20397;-80
2023/02/01 05:47:36;;;;;;;1.70;0.70;;;;;;;-1.26;67.80;99178.06;5090019;28;20526;-80
2023/02/01 05:50:05;;;;;;;4.60;0.75;;;;;;;-1.31;68.15;99165.28;5087956;28;20051;-80
2023/02/01 05:52:33;;;;;;;5.63;0.52;;;;;;;-1.23;68.43;99181.50;5078411;28;20040;-82
2023/02/01 05:54:59;;;;;;;3.95;0.50;;;;;;;-1.26;68.54;99173.81;5082811;28;20104;-82
2023/02/01 05:57:26;;;;;;;2.47;0.60;;;;;;;-1.20;68.41;99186.63;5082094;28;20408;-82
2023/02/01 05:59:53;;;;;;;4.00;0.63;;;;;;;-1.20;68.69;99173.81;5081048;28;20044;-82
2023/02/01 06:02:21;;;;;;;2.75;0.60;;;;;;;-1.16;68.11;99193.50;5078768;28;20044;-81
2023/02/01 06:04:48;;;;;;;1.60;0.50;;;;;;;-1.15;68.41;99184.94;5078715;28;20045;-82
2023/02/01 06:07:16;;;;;;;4.38;0.65;;;;;;;-1.14;68.55;99189.25;5083196;28;20044;-81
2023/02/01 06:09:43;;;;;;;6.22;0.70;;;;;;;-1.12;68.30;99186.66;5085169;28;20044;-82
2023/02/01 06:12:10;;;;;;;6.38;0.80;;;;;;;-1.09;67.80;99185.81;5081343;28;20051;-82
2023/02/01 06:14:37;;;;;;;1.98;0.90;;;;;;;-1.08;68.57;99180.72;5080785;28;20051;-82
2023/02/01 06:17:05;;;;;;;4.80;0.50;;;;;;;-1.06;68.56;99193.50;5084317;28;20048;-82
2023/02/01 06:19:32;;;;;;;8.70;0.90;;;;;;;-1.07;68.54;99196.94;5085750;28;20066;-81
2023/02/01 06:21:59;;;;;;;3.20;0.50;;;;;;;-1.03;68.41;99201.22;5090631;28;20381;-79
2023/02/01 06:24:27;;;;;;;5.00;0.45;;;;;;;-1.02;68.56;99202.94;5085579;28;20044;-82
2023/02/01 06:26:54;;;;;;;7.72;0.52;;;;;;;-1.09;68.37;99190.94;5074365;28;20052;-80
2023/02/01 06:29:21;;;;;;;6.55;0.70;;;;;;;-1.11;68.71;99180.72;5085159;28;20036;-80
2023/02/01 06:31:48;;;;;;;4.18;0.90;;;;;;;-0.97;68.47;99202.09;5083860;28;20069;-81
2023/02/01 06:34:14;;;;;;;3.92;0.50;;;;;;;-0.97;68.70;99206.34;5074910;28;20132;-82
2023/02/01 06:36:41;;;;;;;2.47;0.60;;;;;;;-0.96;68.33;99213.19;5078673;28;20039;-80
2023/02/01 06:39:08;;;;;;;6.43;1.20;;;;;;;-0.96;68.02;99210.66;5080756;28;20043;-80
2023/02/01 06:41:36;;;;;;;4.93;0.73;;;;;;;-0.93;68.39;99215.78;5081368;28;20053;-80
2023/02/01 06:44:03;;;;;;;2.28;0.90;;;;;;;-0.91;68.99;99216.63;5090712;28;20042;-80
2023/02/01 06:46:30;;;;;;;7.05;0.60;;;;;;;-0.91;68.61;99211.53;5080896;28;20048;-78
2023/02/01 06:48:57;;;;;;;8.40;0.50;;;;;;;-0.89;68.66;99214.91;5077204;28;20040;-86
2023/02/01 06:51:26;;;;;;;2.10;0.80;;;;;;;-0.89;68.87;99208.94;5083714;28;20044;-83
2023/02/01 06:53:53;;;;;;;7.20;0.70;;;;;;;-0.87;68.31;99217.50;5080177;28;20046;-83
2023/02/01 06:56:20;;;;;;;3.25;0.70;;;;;;;-0.85;68.69;99218.34;5085939;28;20046;-83
2023/02/01 06:58:49;;;;;;;5.55;0.35;;;;;;;-0.84;68.66;99213.22;5091764;28;20059;-82
2023/02/01 07:01:16;;;;;;;1.67;0.57;;;;;;;-0.83;68.22;99219.19;5088101;28;20847;-82
2023/02/01 07:03:43;;;;;;;1.23;0.75;;;;;;;-0.82;68.78;99218.38;5086630;28;20413;-82
2023/02/01 07:06:11;;;;;;;4.75;0.60;;;;;;;-0.82;68.36;99215.81;5088578;28;20040;-82
2023/02/01 07:08:38;;;;;;;3.90;0.50;;;;;;;-0.78;68.52;99217.50;5087293;28;20051;-82
2023/02/01 07:11:07;;;;;;;5.18;0.45;;;;;;;-0.77;68.78;99214.97;5086550;28;20055;-82
2023/02/01 07:13:34;;;;;;;4.10;0.55;;;;;;;-0.76;68.81;99221.78;5089113;28;20054;-82
2023/02/01 07:16:03;;;;;;;5.30;0.60;;;;;;;-0.75;68.56;99218.38;5080154;28;20059;-83
2023/02/01 07:18:31;;;;;;;2.75;0.65;;;;;;;-0.74;68.34;99214.97;5080565;28;20498;-82
2023/02/01 07:20:58;;;;;;;6.30;0.55;;;;;;;-0.74;68.79;99207.28;5080389;28;20505;-83
2023/02/01 07:23:25;;;;;;;5.20;0.50;;;;;;;-0.71;68.92;99209.84;5086924;28;20510;-83
2023/02/01 07:25:55;;;;;;;6.82;0.93;;;;;;;-0.70;68.65;99208.97;5083438;28;20055;-82
2023/02/01 07:28:22;;;;;;;3.22;0.60;;;;;;;-0.74;68.81;99204.72;5091664;28;20419;-83
2023/02/01 07:30:50;;;;;;;3.85;0.50;;;;;;;-0.68;68.51;99214.97;5087622;28;20492;-82
2023/02/01 07:33:20;;;;;;;4.43;1.15;;;;;;;-0.66;68.36;99222.66;5086478;28;20135;-82
2023/02/01 07:35:47;;;;;;;5.07;1.42;;;;;;;-0.64;68.46;99222.66;5092549;28;20079;-83
2023/02/01 07:38:14;;;;;;;5.53;0.88;;;;;;;-0.63;68.50;99221.81;5093085;28;20507;-83
2023/02/01 07:40:41;;;;;;;2.58;0.55;;;;;;;-0.62;68.63;99228.66;5090734;28;20044;-82
2023/02/01 07:43:09;;;;;;;8.20;0.80;;;;;;;-0.62;68.78;99226.09;5082649;28;20048;-82
2023/02/01 07:45:37;;;;;;;7.63;0.63;;;;;;;-0.61;68.82;99228.66;5087963;28;20048;-82
2023/02/01 07:48:04;;;;;;;8.00;0.90;;;;;;;-0.60;68.57;99232.06;5086232;28;20051;-82
2023/02/01 07:50:32;;;;;;;2.83;1.00;;;;;;;-0.81;68.48;99200.41;5089876;28;20504;-83
2023/02/01 07:53:00;;;;;;;9.35;1.02;;;;;;;-0.58;68.33;99240.63;5090392;28;20054;-83
2023/02/01 07:55:27;;;;;;;2.97;0.90;;;;;;;-0.57;69.33;99232.94;5092784;28;20044;-82
2023/02/01 07:57:58;;;;;;;2.53;0.60;;;;;;;-0.56;68.41;99231.25;5087878;28;20052;-82
2023/02/01 08:03:09;;;;;;;4.60;0.80;;;;;;;-0.57;68.68;99230.38;5090903;28;20182;-82
2023/02/01 08:05:37;;;;;;;10.93;1.40;;;;;;;-0.54;68.81;99237.19;5088213;28;20048;-82
2023/02/01 08:08:05;;;;;;;3.63;0.70;;;;;;;-0.56;69.10;99229.53;5087842;28;20040;-83
2023/02/01 08:10:32;;;;;;;5.25;0.90;;;;;;;-0.51;69.18;99226.97;5087847;28;20055;-82
2023/02/01 08:13:00;;;;;;;2.70;0.60;;;;;;;-0.49;68.68;99235.50;5086506;28;20048;-82
2023/02/01 08:15:27;;;;;;;6.13;0.80;;;;;;;-0.50;68.72;99233.81;5087034;28;20044;-82
2023/02/01 08:17:55;;;;;;;11.65;1.15;;;;;;;-0.46;69.03;99238.06;5085650;28;20044;-82
2023/02/01 08:20:23;;;;;;;5.82;0.70;;;;;;;-0.44;68.62;99236.38;5090211;28;20508;-83
2023/02/01 08:22:51;;;;;;;5.00;1.67;;;;;;;-0.42;69.53;99241.53;5091116;28;21579;-82
2023/02/01 08:25:19;;;;;;;4.82;0.55;;;;;;;-0.42;69.07;99242.38;5099507;28;20048;-82
2023/02/01 08:27:46;;;;;;;3.47;0.65;;;;;;;-0.51;68.91;99226.97;5095060;28;20052;-82
2023/02/01 08:30:14;;;;;;;4.75;0.85;;;;;;;-0.42;69.02;99233.81;5086883;28;20040;-82
2023/02/01 08:32:41;;;;;;;4.85;0.90;;;;;;;-0.53;68.64;99215.84;5080413;28;20381;-83
2023/02/01 08:35:09;;;;;;;2.22;0.65;;;;;;;-0.38;68.68;99245.78;5087972;28;20087;-82
2023/02/01 08:37:36;;;;;;;4.47;1.20;;;;;;;-0.32;69.08;99249.22;5086710;28;20135;-82
2023/02/01 08:40:06;;;;;;;5.10;0.77;;;;;;;-0.31;69.18;99250.94;5086480;28;20044;-82
2023/02/01 08:42:51;;;;;;;5.20;0.40;;;;;;;-0.29;68.93;99254.34;5089371;28;20040;-82
2023/02/01 08:45:19;;;;;;;5.03;0.40;;;;;;;-0.25;69.64;99258.63;5076121;28;20048;-83
2023/02/01 08:47:47;;;;;;;2.28;0.60;;;;;;;-0.27;69.14;99257.78;5085589;28;20784;-83
2023/02/01 08:50:15;;;;;;;8.32;0.60;;;;;;;-0.21;69.42;99258.63;5086471;28;20053;-82
2023/02/01 08:52:42;;;;;;;5.78;0.57;;;;;;;-0.18;69.42;99256.06;5079282;28;20051;-82
2023/02/01 08:55:11;;;;;;;4.60;0.43;;;;;;;-0.17;69.15;99247.50;5078592;28;20041;-83
2023/02/01 08:57:38;;;;;;;2.33;0.60;;;;;;;-0.12;69.34;99250.94;5086028;28;20047;-83
2023/02/01 09:00:09;;;;;;;1.55;0.52;;;;;;;-0.11;69.46;99250.94;5090108;28;20044;-82
2023/02/01 09:02:36;;;;;;;7.28;0.63;;;;;;;-0.07;69.52;99255.22;5089024;28;20052;-82
2023/02/01 09:05:04;;;;;;;4.22;0.80;;;;;;;-0.05;69.32;99247.53;5078057;28;20056;-82
2023/02/01 09:07:31;;;;;;;10.48;1.48;;;;;;;-0.02;69.30;99247.53;5085890;28;20116;-82
2023/02/01 09:10:00;;;;;;;3.65;0.65;;;;;;;-0.19;68.73;99215.88;5087557;28;20041;-82
2023/02/01 09:12:29;;;;;;;7.88;0.50;;;;;;;0.04;68.88;99244.09;5078128;28;20052;-82
2023/02/01 09:14:56;;;;;;;5.10;0.60;;;;;;;0.06;69.33;99250.06;5087909;28;20052;-82
2023/02/01 09:17:23;;;;;;;4.70;0.70;;;;;;;0.08;69.27;99250.94;5095134;28;20062;-82
2023/02/01 09:19:50;;;;;;;5.30;0.80;;;;;;;0.10;69.38;99252.66;5092108;28;20052;-84
2023/02/01 09:22:17;;;;;;;6.05;0.60;;;;;;;0.12;68.91;99250.09;5091338;28;20048;-82
2023/02/01 09:24:44;;;;;;;4.85;0.90;;;;;;;0.11;68.50;99250.94;5083245;28;20044;-78
2023/02/01 09:27:11;;;;;;;5.88;0.77;;;;;;;0.15;69.53;99256.06;5085482;28;20044;-81
2023/02/01 09:29:39;;;;;;;5.20;0.80;;;;;;;0.19;68.60;99259.47;5084678;28;20408;-81
2023/02/01 09:32:06;;;;;;;8.48;0.80;;;;;;;0.21;69.29;99265.47;5092189;28;20060;-81
2023/02/01 09:34:34;;;;;;;7.25;0.60;;;;;;;0.24;68.76;99264.63;5079755;28;20431;-82
2023/02/01 09:37:01;;;;;;;3.63;0.77;;;;;;;0.26;68.70;99271.47;5085585;28;20060;-83
2023/02/01 09:39:30;;;;;;;4.68;0.55;;;;;;;0.26;69.05;99262.88;5086373;28;20504;-85
2023/02/01 09:42:11;;;;;;;5.53;0.60;;;;;;;0.32;69.34;99275.75;5089020;28;20044;-85
2023/02/01 09:45:04;;;;;;;5.65;0.52;;;;;;;0.34;68.72;99281.72;5088376;28;20752;-86
2023/02/01 09:47:32;;;;;;;6.50;0.68;;;;;;;0.17;68.57;99243.22;5089351;28;20054;-90
2023/02/01 09:50:04;;;;;;;5.78;0.70;;;;;;;0.34;69.30;99274.00;5086166;28;20059;-83
2023/02/01 09:52:37;;;;;;;5.18;0.60;;;;;;;0.39;69.41;99275.72;5087716;28;20047;-80
2023/02/01 09:55:11;;;;;;;2.70;0.50;;;;;;;0.33;69.30;99262.03;5088407;28;20055;-85
2023/02/01 09:57:47;;;;;;;5.35;1.25;;;;;;;0.43;69.19;99271.47;5091858;28;20040;-84
2023/02/01 10:00:23;;;;;;;3.00;0.70;;;;;;;0.45;69.19;99264.56;5092665;28;20058;-85
2023/02/01 10:02:52;;;;;;;2.05;0.55;;;;;;;0.45;68.91;99264.56;5089535;28;20048;-89
2023/02/01 10:05:26;;;;;;;6.20;0.82;;;;;;;0.49;68.72;99266.31;5087880;28;20064;-81
2023/02/01 10:08:02;;;;;;;5.72;0.45;;;;;;;0.53;69.07;99262.00;5086156;28;20048;-79
2023/02/01 10:10:34;;;;;;;4.80;0.60;;;;;;;0.54;68.76;99264.59;5089693;28;20929;-82
2023/02/01 10:13:28;;;;;;;3.00;1.65;;;;;;;0.57;68.77;99262.00;5081699;28;20489;-83
2023/02/01 10:16:13;;;;;;;4.63;0.50;;;;;;;0.60;68.84;99269.69;5080207;28;20051;-89
2023/02/01 10:19:02;;;;;;;3.03;0.50;;;;;;;0.61;68.56;99273.97;5088575;28;20050;-83
2023/02/01 10:21:43;;;;;;;2.85;0.57;;;;;;;0.61;68.83;99266.25;5084182;28;20040;-79
2023/02/01 10:24:24;;;;;;;11.52;0.90;;;;;;;0.64;69.03;99276.53;5084346;28;20056;-81
2023/02/01 10:26:58;;;;;;;3.17;0.50;;;;;;;0.67;68.92;99276.53;5086762;28;20515;-80
2023/02/01 10:29:29;;;;;;;4.95;0.95;;;;;;;0.70;68.77;99285.09;5088194;28;20058;-81
2023/02/01 10:31:58;;;;;;;3.53;0.60;;;;;;;0.72;68.64;99278.25;5083428;28;20045;-79
2023/02/01 10:34:29;;;;;;;2.40;0.80;;;;;;;0.73;69.23;99285.09;5086060;28;20042;-81
2023/02/01 10:36:58;;;;;;;3.80;0.80;;;;;;;0.73;69.07;99285.09;5084768;28;20044;-83
2023/02/01 10:39:25;;;;;;;7.68;0.85;;;;;;;0.74;68.84;99286.78;5085622;28;20052;-71
2023/02/01 10:41:53;;;;;;;5.90;1.05;;;;;;;0.75;68.69;99289.38;5078537;28;20051;-71
2023/02/01 10:44:25;;;;;;;6.63;1.00;;;;;;;0.76;69.52;99296.19;5075546;28;20059;-71
2023/02/01 10:46:52;;;;;;;4.05;2.08;;;;;;;0.79;68.53;99305.63;5082090;28;20489;-71
2023/02/01 10:49:25;;;;;;;5.22;1.02;;;;;;;0.79;69.15;99303.06;5080622;28;20045;-72
2023/02/01 10:51:56;;;;;;;8.77;1.00;;;;;;;0.82;68.80;99298.75;5077224;28;20515;-73
2023/02/01 10:54:33;;;;;;;7.18;1.08;;;;;;;0.84;69.27;99298.75;5079500;28;20058;-74
2023/02/01 10:57:01;;;;;;;7.97;1.90;;;;;;;0.85;68.85;99297.88;5077633;28;20051;-74
2023/02/01 10:59:30;;;;;;;8.20;1.05;;;;;;;0.88;68.79;99298.75;5079013;28;20105;-74
2023/02/01 11:02:01;;;;;;;5.10;1.25;;;;;;;0.87;69.53;99296.19;5078577;28;20053;-74
2023/02/01 11:04:34;;;;;;;2.10;0.90;;;;;;;0.92;68.50;99294.47;5082215;28;20040;-74
2023/02/01 11:07:08;;;;;;;3.20;1.00;;;;;;;0.95;69.26;99286.72;5081033;28;20044;-75
2023/02/01 11:09:39;;;;;;;11.73;1.17;;;;;;;0.95;69.30;99291.88;5077781;28;20041;-74
2023/02/01 11:12:28;;;;;;;6.22;0.90;;;;;;;0.95;69.10;99286.72;5080926;28;20058;-74
2023/02/01 11:15:01;;;;;;;5.05;0.95;;;;;;;0.99;69.24;99288.41;5086285;28;20071;-74
2023/02/01 11:17:36;;;;;;;4.72;1.10;;;;;;;1.01;68.26;99285.84;5082830;28;20044;-74
2023/02/01 11:20:13;;;;;;;4.07;1.05;;;;;;;1.02;68.76;99290.13;5083751;28;20044;-74
2023/02/01 11:22:47;;;;;;;4.30;1.20;;;;;;;1.04;69.15;99284.13;5078199;28;20045;-74
2023/02/01 11:25:17;;;;;;;4.57;1.10;;;;;;;1.07;68.64;99294.38;5081404;28;20041;-74
2023/02/01 11:27:45;;;;;;;5.20;0.90;;;;;;;1.09;68.78;99294.41;5078571;28;20040;-71
2023/02/01 11:30:17;;;;;;;7.47;2.20;;;;;;;1.11;69.10;99298.69;5083649;28;20052;-72
2023/02/01 11:32:45;;;;;;;10.80;1.77;;;;;;;1.12;69.19;99302.94;5080686;28;20052;-73
2023/02/01 11:35:20;;;;;;;4.03;2.05;;;;;;;1.14;68.82;99295.25;5081633;28;20072;-71
2023/02/01 11:37:53;;;;;;;4.20;1.50;;;;;;;1.15;69.33;99296.94;5081054;28;20106;-71
2023/02/01 11:40:30;;;;;;;6.32;1.05;;;;;;;1.18;69.16;99296.94;5079689;28;20044;-71
2023/02/01 11:43:00;;;;;;;6.15;1.95;;;;;;;1.19;68.78;99298.63;5083474;28;20599;-73
2023/02/01 11:45:29;;;;;;;3.65;0.80;;;;;;;1.21;68.73;99304.63;5083371;28;20056;-72
2023/02/01 11:47:57;;;;;;;4.53;1.17;;;;;;;1.23;68.84;99300.34;5078679;28;20066;-73
2023/02/01 11:50:35;;;;;;;2.95;0.90;;;;;;;1.24;68.87;99304.59;5083107;28;20055;-73
2023/02/01 11:53:20;;;;;;;3.35;0.60;;;;;;;1.26;68.78;99309.75;5080813;28;20503;-73
2023/02/01 11:55:57;;;;;;;6.20;0.93;;;;;;;1.27;69.45;99314.03;5078564;28;20040;-73
2023/02/01 11:58:59;;;;;;;9.20;0.85;;;;;;;1.29;68.81;99314.88;5084803;28;20363;-72
2023/02/01 12:01:44;;;;;;;5.65;0.70;;;;;;;1.31;68.87;99316.59;5077024;28;20067;-72
2023/02/01 12:04:47;;;;;;;3.83;1.10;;;;;;;1.30;68.47;99317.44;5080516;28;20072;-75
2023/02/01 12:07:20;;;;;;;7.45;1.10;;;;;;;1.34;68.61;99321.72;5081242;28;20041;-74
2023/02/01 12:10:00;;;;;;;5.25;0.80;;;;;;;1.35;69.02;99326.00;5081912;28;20056;-74
2023/02/01 12:12:35;;;;;;;3.25;0.95;;;;;;;1.31;68.92;99315.75;5083561;28;20139;-73
2023/02/01 12:15:21;;;;;;;2.85;0.40;;;;;;;1.39;69.13;99334.56;5081633;28;20477;-74
2023/02/01 12:18:19;;;;;;;2.22;0.80;;;;;;;1.39;68.93;99323.41;5084494;28;20052;-81